METAR OBSERVATIONS
Looking Back 6 hours

  • KPBF 202353Z AUTO 19004KT 10SM FEW055 SCT075 BKN095 24/22 A2990 RMK AO2 RAB23E44 SLP123 P0000 60004 T02440222 10272 20244 55001 =
  • KPBF 202253Z AUTO 00000KT 10SM OVC110 26/22 A2989 RMK AO2 RAE2159B25E39 SLP120 P0000 T02560217 =
  • KPBF 202153Z AUTO 13003KT 10SM -RA FEW050 BKN100 OVC120 26/22 A2990 RMK AO2 SLP121 P0000 T02560217 =
  • KPBF 202053Z AUTO 19007KT 10SM -RA SCT045 BKN060 BKN070 26/23 A2990 RMK AO2 RAE18B46 SLP123 P0000 60004 T02610228 58016 =
  • KPBF 201953Z AUTO 21008KT 9SM -RA BKN048 OVC055 26/24 A2992 RMK AO2 SLP130 P0003 T02610244 =
    ________________________________________